Terminal Aerodrome Forecast
Issued by NWS

Home | Current Version | Previous Version | Text Only | Print | Product List | Glossary On
Versions: 1 2 3 4 5 6 7 8 9 10 11 12 13
000
FTUS44 KLIX 291100
TAFGPT
TAF
KGPT 291130Z 2912/3012 15004KT P6SM SCT250
     FM292000 19008KT P6SM SCT250
     FM300400 26005KT P6SM BKN110
     FM300600 31007KT P6SM BKN030
     FM300700 32009KT P6SM BKN100
     FM300900 36014KT P6SM BKN250=

USA.gov is the U.S. government's official web portal to all federal, state and local government web resources and services.